Bridgeport, New York
Current Conditions -  °F | °C
As of 6:54 AM on Monday 24 Nov 2014 (Local Time) from KSYR Reporting Station
Overcast Overcast  
Wind Chill: 60°   Ceiling: 3400
Heat Index: 60°   Visibility: 10mi
Dew Point: 53°   Wind: 12mph
Humidity: 78%   Direction: 160°SSE
Pressure: 29.43"   Gusts: 22mph
Location:  43.15°N, 75.97°W
Report Text: KSYR 241154Z 16010G19KT 10SM FEW026 BKN034 OVC070 16/12 A2943 RMK AO2 SLP964 60008 70008 T01560117 10156 20100 58024 $
Loading
Personal Weather Stations






























Interactive Weather Map New forecast layout! Learn more

10-Day Weather Forecast

Advertisements
Track Severe Weather on mobile